Time,TemperatureF,DewpointF,PressureIn,WindDirection,WindDirectionDegrees,WindSpeedMPH,WindSpeedGustMPH,Humidity,HourlyPrecipIn,Conditions,Clouds,dailyrainin,SoftwareType,DateUTC
2013-08-18 00:11:00,63.3,57.0,30.29,WSW,252,0.0,0.0,79,0.00,,,0.00,weatherlink.com 1.10,2013-08-18 04:11:00,
2013-08-18 00:26:00,63.3,56.0,30.29,WSW,252,0.0,0.0,78,0.00,,,0.00,weatherlink.com 1.10,2013-08-18 04:26:00,
2013-08-18 00:41:00,63.3,57.0,30.28,WSW,252,0.0,0.0,79,0.00,,,0.00,weatherlink.com 1.10,2013-08-18 04:41:00,
2013-08-18 00:56:00,63.0,57.0,30.28,WSW,252,0.0,0.0,81,0.00,,,0.00,weatherlink.com 1.10,2013-08-18 04:56:00,
2013-08-18 01:11:00,62.5,57.0,30.28,WSW,252,0.0,0.0,82,0.00,,,0.00,weatherlink.com 1.10,2013-08-18 05:11:00,
2013-08-18 01:26:00,62.5,57.0,30.27,WSW,252,0.0,0.0,83,0.00,,,0.00,weatherlink.com 1.10,2013-08-18 05:26:00,
2013-08-18 01:41:00,62.4,58.0,30.27,WSW,252,0.0,0.0,84,0.00,,,0.00,weatherlink.com 1.10,2013-08-18 05:41:00,
2013-08-18 01:56:00,62.2,58.0,30.27,WSW,252,0.0,0.0,85,0.00,,,0.00,weatherlink.com 1.10,2013-08-18 05:56:00,
2013-08-18 02:11:00,62.3,58.0,30.27,WSW,252,0.0,0.0,85,0.00,,,0.00,weatherlink.com 1.10,2013-08-18 06:11:00,
2013-08-18 02:26:00,62.2,58.0,30.27,WSW,252,0.0,0.0,85,0.00,,,0.00,weatherlink.com 1.10,2013-08-18 06:26:00,
2013-08-18 02:41:00,62.2,58.0,30.27,WSW,252,0.0,0.0,86,0.00,,,0.00,weatherlink.com 1.10,2013-08-18 06:41:00,
2013-08-18 02:56:00,61.8,58.0,30.27,WSW,252,0.0,0.0,87,0.00,,,0.00,weatherlink.com 1.10,2013-08-18 06:56:00,
2013-08-18 03:11:00,61.6,58.0,30.26,WSW,252,0.0,0.0,88,0.00,,,0.00,weatherlink.com 1.10,2013-08-18 07:11:00,
2013-08-18 03:26:00,61.4,58.0,30.26,WSW,252,0.0,0.0,88,0.00,,,0.00,weatherlink.com 1.10,2013-08-18 07:26:00,
2013-08-18 03:41:00,61.4,58.0,30.26,WSW,252,0.0,0.0,88,0.00,,,0.00,weatherlink.com 1.10,2013-08-18 07:41:00,
2013-08-18 03:56:00,61.4,58.0,30.27,WSW,252,0.0,0.0,89,0.00,,,0.00,weatherlink.com 1.10,2013-08-18 07:56:00,
2013-08-18 04:11:00,61.7,58.0,30.26,WSW,252,0.0,0.0,88,0.00,,,0.00,weatherlink.com 1.10,2013-08-18 08:11:00,
2013-08-18 04:26:00,61.8,58.0,30.26,WSW,252,0.0,0.0,88,0.00,,,0.00,weatherlink.com 1.10,2013-08-18 08:26:00,
2013-08-18 04:41:00,62.1,58.0,30.26,WSW,252,0.0,0.0,87,0.00,,,0.00,weatherlink.com 1.10,2013-08-18 08:41:00,
2013-08-18 04:56:00,62.5,59.0,30.26,WSW,252,0.0,0.0,87,0.00,,,0.00,weatherlink.com 1.10,2013-08-18 08:56:00,
2013-08-18 05:11:00,62.6,58.0,30.26,WSW,252,0.0,0.0,86,0.00,,,0.00,weatherlink.com 1.10,2013-08-18 09:11:00,
2013-08-18 05:26:00,62.6,58.0,30.26,WSW,252,0.0,0.0,85,0.00,,,0.00,weatherlink.com 1.10,2013-08-18 09:26:00,
2013-08-18 05:41:00,62.8,59.0,30.26,WSW,252,0.0,0.0,87,0.00,,,0.00,weatherlink.com 1.10,2013-08-18 09:41:00,
2013-08-18 05:56:00,62.9,59.0,30.27,WSW,252,0.0,0.0,86,0.00,,,0.00,weatherlink.com 1.10,2013-08-18 09:56:00,
2013-08-18 06:11:00,63.0,59.0,30.27,WSW,252,0.0,0.0,87,0.00,,,0.00,weatherlink.com 1.10,2013-08-18 10:11:00,
2013-08-18 06:26:00,62.9,59.0,30.27,WSW,252,0.0,0.0,87,0.00,,,0.00,weatherlink.com 1.10,2013-08-18 10:26:00,
2013-08-18 06:41:00,62.4,59.0,30.27,WSW,252,0.0,0.0,88,0.00,,,0.00,weatherlink.com 1.10,2013-08-18 10:41:00,
2013-08-18 06:56:00,62.7,59.0,30.27,WSW,252,0.0,0.0,86,0.00,,,0.00,weatherlink.com 1.10,2013-08-18 10:56:00,
2013-08-18 07:11:00,63.3,59.0,30.28,WSW,252,0.0,0.0,85,0.00,,,0.00,weatherlink.com 1.10,2013-08-18 11:11:00,
2013-08-18 07:26:00,63.9,59.0,30.28,WSW,252,0.0,0.0,83,0.00,,,0.00,weatherlink.com 1.10,2013-08-18 11:26:00,
2013-08-18 07:41:00,64.5,59.0,30.28,WSW,252,0.0,1.0,83,0.00,,,0.00,weatherlink.com 1.10,2013-08-18 11:41:00,
2013-08-18 07:56:00,64.9,60.0,30.28,WSW,252,0.0,0.0,83,0.00,,,0.00,weatherlink.com 1.10,2013-08-18 11:56:00,
2013-08-18 08:11:00,65.6,60.0,30.28,WSW,252,0.0,1.0,83,0.00,,,0.00,weatherlink.com 1.10,2013-08-18 12:11:00,
2013-08-18 08:26:00,66.2,61.0,30.28,WSW,252,0.0,1.0,82,0.00,,,0.00,weatherlink.com 1.10,2013-08-18 12:26:00,
2013-08-18 08:41:00,67.3,61.0,30.28,NNW,335,0.0,0.0,81,0.00,,,0.00,weatherlink.com 1.10,2013-08-18 12:41:00,
2013-08-18 08:56:00,68.3,61.0,30.27,NW,315,0.0,1.0,78,0.00,,,0.00,weatherlink.com 1.10,2013-08-18 12:56:00,
2013-08-18 09:11:00,69.1,62.0,30.27,NW,314,0.0,1.0,77,0.00,,,0.00,weatherlink.com 1.10,2013-08-18 13:11:00,
2013-08-18 09:26:00,69.6,61.0,30.27,NE,37,0.0,1.0,75,0.00,,,0.00,weatherlink.com 1.10,2013-08-18 13:26:00,
2013-08-18 09:41:00,70.3,62.0,30.27,NE,35,0.0,1.0,75,0.00,,,0.00,weatherlink.com 1.10,2013-08-18 13:41:00,
2013-08-18 09:56:00,70.8,63.0,30.28,NNE,23,0.0,1.0,75,0.00,,,0.00,weatherlink.com 1.10,2013-08-18 13:56:00,
2013-08-18 10:11:00,72.1,63.0,30.28,WSW,253,0.0,1.0,73,0.00,,,0.00,weatherlink.com 1.10,2013-08-18 14:11:00,
2013-08-18 10:26:00,72.2,63.0,30.28,NNW,348,0.0,1.0,73,0.00,,,0.00,weatherlink.com 1.10,2013-08-18 14:26:00,
2013-08-18 10:42:00,73.3,64.0,30.27,SE,146,1.0,2.0,72,0.00,,,0.00,weatherlink.com 1.10,2013-08-18 14:42:00,
2013-08-18 10:57:00,74.2,64.0,30.27,SSE,155,0.0,1.0,71,0.00,,,0.00,weatherlink.com 1.10,2013-08-18 14:57:00,
2013-08-18 11:12:00,74.3,64.0,30.27,SSE,155,0.0,1.0,70,0.00,,,0.00,weatherlink.com 1.10,2013-08-18 15:12:00,
2013-08-18 11:27:00,74.4,64.0,30.27,SSE,155,1.0,1.0,69,0.00,,,0.00,weatherlink.com 1.10,2013-08-18 15:27:00,
2013-08-18 11:42:00,74.9,63.0,30.26,East,95,0.0,1.0,66,0.00,,,0.00,weatherlink.com 1.10,2013-08-18 15:42:00,
2013-08-18 11:57:00,75.2,63.0,30.27,ESE,105,0.0,1.0,65,0.00,,,0.00,weatherlink.com 1.10,2013-08-18 15:57:00,
2013-08-18 12:12:00,75.5,61.0,30.27,ESE,108,0.0,1.0,61,0.00,,,0.00,weatherlink.com 1.10,2013-08-18 16:12:00,
2013-08-18 12:27:00,75.5,61.0,30.27,SSE,160,0.0,3.0,62,0.00,,,0.00,weatherlink.com 1.10,2013-08-18 16:27:00,
2013-08-18 12:42:00,74.8,61.0,30.27,SSE,158,0.0,1.0,63,0.00,,,0.00,weatherlink.com 1.10,2013-08-18 16:42:00,
2013-08-18 12:57:00,74.4,61.0,30.26,SSE,158,0.0,0.0,64,0.00,,,0.00,weatherlink.com 1.10,2013-08-18 16:57:00,
2013-08-18 13:12:00,74.1,61.0,30.25,SSE,158,0.0,1.0,64,0.00,,,0.00,weatherlink.com 1.10,2013-08-18 17:12:00,
2013-08-18 13:27:00,75.0,62.0,30.24,SSE,158,0.0,1.0,65,0.00,,,0.00,weatherlink.com 1.10,2013-08-18 17:27:00,
2013-08-18 13:41:00,74.6,63.0,30.24,East,98,0.0,1.0,67,0.00,,,0.00,weatherlink.com 1.10,2013-08-18 17:41:00,
2013-08-18 13:56:00,75.0,62.0,30.24,East,100,0.0,0.0,64,0.00,,,0.00,weatherlink.com 1.10,2013-08-18 17:56:00,
2013-08-18 14:12:00,75.4,62.0,30.23,NE,51,0.0,1.0,63,0.00,,,0.00,weatherlink.com 1.10,2013-08-18 18:12:00,
2013-08-18 14:27:00,75.4,62.0,30.22,ENE,72,0.0,1.0,64,0.00,,,0.00,weatherlink.com 1.10,2013-08-18 18:27:00,
2013-08-18 14:41:00,75.3,63.0,30.21,ENE,70,0.0,1.0,65,0.00,,,0.00,weatherlink.com 1.10,2013-08-18 18:41:00,
2013-08-18 14:56:00,75.5,64.0,30.20,NNW,345,0.0,2.0,67,0.00,,,0.00,weatherlink.com 1.10,2013-08-18 18:56:00,
2013-08-18 15:11:00,74.5,63.0,30.20,North,349,0.0,1.0,68,0.00,,,0.00,weatherlink.com 1.10,2013-08-18 19:11:00,
2013-08-18 15:26:00,74.0,63.0,30.19,East,79,0.0,2.0,68,0.00,,,0.00,weatherlink.com 1.10,2013-08-18 19:26:00,
2013-08-18 15:41:00,73.9,64.0,30.18,ENE,78,0.0,1.0,72,0.00,,,0.00,weatherlink.com 1.10,2013-08-18 19:41:00,
2013-08-18 15:56:00,74.4,64.0,30.18,ENE,78,0.0,1.0,70,0.00,,,0.00,weatherlink.com 1.10,2013-08-18 19:56:00,
2013-08-18 16:11:00,73.7,63.0,30.18,ENE,78,0.0,1.0,69,0.00,,,0.00,weatherlink.com 1.10,2013-08-18 20:11:00,
2013-08-18 16:26:00,73.3,64.0,30.18,ENE,78,0.0,0.0,73,0.00,,,0.00,weatherlink.com 1.10,2013-08-18 20:26:00,
2013-08-18 16:42:00,72.6,65.0,30.17,ENE,77,0.0,0.0,76,0.00,,,0.00,weatherlink.com 1.10,2013-08-18 20:42:00,
2013-08-18 16:57:00,72.4,64.0,30.17,ENE,78,0.0,0.0,76,0.00,,,0.00,weatherlink.com 1.10,2013-08-18 20:57:00,
2013-08-18 17:12:00,73.1,66.0,30.17,ENE,77,0.0,0.0,77,0.00,,,0.00,weatherlink.com 1.10,2013-08-18 21:12:00,
2013-08-18 17:27:00,72.8,65.0,30.17,ENE,77,0.0,0.0,76,0.00,,,0.00,weatherlink.com 1.10,2013-08-18 21:27:00,
2013-08-18 17:42:00,72.3,65.0,30.18,ENE,78,0.0,0.0,77,0.00,,,0.00,weatherlink.com 1.10,2013-08-18 21:42:00,
2013-08-18 17:57:00,71.9,64.0,30.17,ENE,78,0.0,0.0,77,0.00,,,0.00,weatherlink.com 1.10,2013-08-18 21:57:00,
2013-08-18 18:12:00,71.6,64.0,30.16,ENE,77,0.0,0.0,77,0.00,,,0.00,weatherlink.com 1.10,2013-08-18 22:12:00,
2013-08-18 18:27:00,71.5,64.0,30.16,ENE,77,0.0,0.0,78,0.00,,,0.00,weatherlink.com 1.10,2013-08-18 22:27:00,
2013-08-18 18:42:00,71.4,64.0,30.16,East,79,0.0,0.0,77,0.00,,,0.00,weatherlink.com 1.10,2013-08-18 22:42:00,
2013-08-18 18:57:00,70.9,64.0,30.17,ENE,78,0.0,1.0,80,0.00,,,0.00,weatherlink.com 1.10,2013-08-18 22:57:00,
2013-08-18 19:13:00,70.4,64.0,30.16,ENE,78,0.0,0.0,81,0.00,,,0.00,weatherlink.com 1.10,2013-08-18 23:13:00,
2013-08-18 19:27:00,70.0,64.0,30.16,ENE,78,0.0,0.0,82,0.00,,,0.00,weatherlink.com 1.10,2013-08-18 23:27:00,
2013-08-18 19:42:00,69.5,63.0,30.16,ENE,77,0.0,0.0,81,0.00,,,0.00,weatherlink.com 1.10,2013-08-18 23:42:00,
2013-08-18 19:57:00,69.1,64.0,30.16,ENE,77,0.0,0.0,83,0.00,,,0.00,weatherlink.com 1.10,2013-08-18 23:57:00,
2013-08-18 20:12:00,68.7,62.0,30.16,ENE,77,0.0,0.0,80,0.00,,,0.00,weatherlink.com 1.10,2013-08-19 00:12:00,
2013-08-18 20:27:00,68.4,63.0,30.17,ENE,77,0.0,0.0,83,0.00,,,0.00,weatherlink.com 1.10,2013-08-19 00:27:00,
2013-08-18 20:42:00,67.5,63.0,30.17,ENE,77,0.0,0.0,84,0.00,,,0.00,weatherlink.com 1.10,2013-08-19 00:42:00,
2013-08-18 20:57:00,67.0,62.0,30.16,ENE,77,0.0,0.0,85,0.00,,,0.00,weatherlink.com 1.10,2013-08-19 00:57:00,
2013-08-18 21:12:00,66.4,63.0,30.17,ENE,77,0.0,0.0,87,0.00,,,0.00,weatherlink.com 1.10,2013-08-19 01:12:00,
2013-08-18 21:27:00,65.9,62.0,30.16,ENE,77,0.0,0.0,86,0.00,,,0.00,weatherlink.com 1.10,2013-08-19 01:27:00,
2013-08-18 21:42:00,65.6,62.0,30.16,ENE,77,0.0,0.0,87,0.00,,,0.00,weatherlink.com 1.10,2013-08-19 01:42:00,
2013-08-18 21:57:00,65.0,61.0,30.16,ENE,77,0.0,0.0,87,0.00,,,0.00,weatherlink.com 1.10,2013-08-19 01:57:00,
2013-08-18 22:12:00,64.7,61.0,30.16,ENE,78,0.0,0.0,88,0.00,,,0.00,weatherlink.com 1.10,2013-08-19 02:12:00,
2013-08-18 22:27:00,64.5,61.0,30.16,ENE,77,0.0,0.0,89,0.00,,,0.00,weatherlink.com 1.10,2013-08-19 02:27:00,
2013-08-18 22:42:00,64.1,61.0,30.16,ENE,77,0.0,0.0,88,0.00,,,0.00,weatherlink.com 1.10,2013-08-19 02:42:00,
2013-08-18 22:57:00,64.1,61.0,30.17,ENE,78,0.0,0.0,89,0.00,,,0.00,weatherlink.com 1.10,2013-08-19 02:57:00,
2013-08-18 23:12:00,64.0,60.0,30.16,ENE,77,0.0,0.0,88,0.00,,,0.00,weatherlink.com 1.10,2013-08-19 03:12:00,
2013-08-18 23:27:00,64.0,60.0,30.16,ENE,77,0.0,0.0,88,0.00,,,0.00,weatherlink.com 1.10,2013-08-19 03:27:00,
2013-08-18 23:42:00,63.4,60.0,30.16,ENE,77,0.0,0.0,89,0.00,,,0.00,weatherlink.com 1.10,2013-08-19 03:42:00,
2013-08-18 23:57:00,62.8,60.0,30.15,ENE,78,0.0,0.0,90,0.00,,,0.00,weatherlink.com 1.10,2013-08-19 03:57:00,